sensor_id;sensor_type;location;lat;lon;timestamp;pressure;altitude;pressure_sealevel;temperature;humidity
24666;BME280;29726;53.532;-1.478;2023-01-29T00:01:36;101686.00;;;11.62;100.00
24666;BME280;29726;53.532;-1.478;2023-01-29T00:04:02;101683.63;;;11.60;100.00
24666;BME280;29726;53.532;-1.478;2023-01-29T00:06:28;101698.28;;;11.64;100.00
24666;BME280;29726;53.532;-1.478;2023-01-29T00:08:53;101694.38;;;11.62;100.00
24666;BME280;29726;53.532;-1.478;2023-01-29T00:11:19;101686.84;;;11.58;100.00
24666;BME280;29726;53.532;-1.478;2023-01-29T00:13:49;101672.97;;;11.55;100.00
24666;BME280;29726;53.532;-1.478;2023-01-29T00:16:15;101676.03;;;11.61;100.00
24666;BME280;29726;53.532;-1.478;2023-01-29T00:18:41;101679.59;;;11.61;100.00
24666;BME280;29726;53.532;-1.478;2023-01-29T00:21:10;101670.53;;;11.57;100.00
24666;BME280;29726;53.532;-1.478;2023-01-29T00:23:36;101668.19;;;11.56;100.00
24666;BME280;29726;53.532;-1.478;2023-01-29T00:26:01;101671.22;;;11.61;100.00
24666;BME280;29726;53.532;-1.478;2023-01-29T00:28:27;101650.97;;;11.57;100.00
24666;BME280;29726;53.532;-1.478;2023-01-29T00:30:52;101642.63;;;11.53;100.00
24666;BME280;29726;53.532;-1.478;2023-01-29T00:33:17;101637.06;;;11.53;100.00
24666;BME280;29726;53.532;-1.478;2023-01-29T00:35:43;101638.97;;;11.57;100.00
24666;BME280;29726;53.532;-1.478;2023-01-29T00:38:09;101629.81;;;11.56;100.00
24666;BME280;29726;53.532;-1.478;2023-01-29T00:40:37;101630.91;;;11.58;100.00
24666;BME280;29726;53.532;-1.478;2023-01-29T00:43:21;101622.28;;;11.53;100.00
24666;BME280;29726;53.532;-1.478;2023-01-29T00:46:06;101621.06;;;11.54;100.00
24666;BME280;29726;53.532;-1.478;2023-01-29T00:48:32;101611.13;;;11.53;100.00
24666;BME280;29726;53.532;-1.478;2023-01-29T00:51:00;101613.81;;;11.57;100.00
24666;BME280;29726;53.532;-1.478;2023-01-29T00:53:27;101603.06;;;11.55;100.00
24666;BME280;29726;53.532;-1.478;2023-01-29T00:55:53;101602.72;;;11.53;100.00
24666;BME280;29726;53.532;-1.478;2023-01-29T00:58:18;101607.84;;;11.54;100.00
24666;BME280;29726;53.532;-1.478;2023-01-29T01:00:49;101603.97;;;11.52;100.00
24666;BME280;29726;53.532;-1.478;2023-01-29T01:03:15;101591.53;;;11.53;100.00
24666;BME280;29726;53.532;-1.478;2023-01-29T01:05:41;101589.97;;;11.52;100.00
24666;BME280;29726;53.532;-1.478;2023-01-29T01:08:08;101583.16;;;11.53;100.00
24666;BME280;29726;53.532;-1.478;2023-01-29T01:11:01;101572.50;;;11.48;100.00
24666;BME280;29726;53.532;-1.478;2023-01-29T01:13:28;101574.75;;;11.53;100.00
24666;BME280;29726;53.532;-1.478;2023-01-29T01:15:55;101569.38;;;11.46;100.00
24666;BME280;29726;53.532;-1.478;2023-01-29T01:18:20;101567.47;;;11.43;100.00
24666;BME280;29726;53.532;-1.478;2023-01-29T01:20:47;101571.16;;;11.52;100.00
24666;BME280;29726;53.532;-1.478;2023-01-29T01:23:17;101567.59;;;11.52;100.00
24666;BME280;29726;53.532;-1.478;2023-01-29T01:25:42;101534.81;;;11.28;100.00
24666;BME280;29726;53.532;-1.478;2023-01-29T01:28:08;101560.09;;;11.49;100.00
24666;BME280;29726;53.532;-1.478;2023-01-29T01:30:34;101558.53;;;11.48;100.00
24666;BME280;29726;53.532;-1.478;2023-01-29T01:33:00;101561.69;;;11.50;100.00
24666;BME280;29726;53.532;-1.478;2023-01-29T01:35:25;101557.75;;;11.48;100.00
24666;BME280;29726;53.532;-1.478;2023-01-29T01:37:51;101543.69;;;11.39;100.00
24666;BME280;29726;53.532;-1.478;2023-01-29T01:40:21;101551.72;;;11.49;100.00
24666;BME280;29726;53.532;-1.478;2023-01-29T01:42:52;101550.38;;;11.41;100.00
24666;BME280;29726;53.532;-1.478;2023-01-29T01:45:31;101559.31;;;11.49;100.00
24666;BME280;29726;53.532;-1.478;2023-01-29T01:48:11;101556.19;;;11.47;100.00
24666;BME280;29726;53.532;-1.478;2023-01-29T01:50:40;101551.81;;;11.46;100.00
24666;BME280;29726;53.532;-1.478;2023-01-29T01:53:10;101541.88;;;11.45;100.00
24666;BME280;29726;53.532;-1.478;2023-01-29T01:55:39;101549.13;;;11.42;100.00
24666;BME280;29726;53.532;-1.478;2023-01-29T01:58:22;101547.56;;;11.41;100.00
24666;BME280;29726;53.532;-1.478;2023-01-29T02:00:50;101546.47;;;11.39;100.00
24666;BME280;29726;53.532;-1.478;2023-01-29T02:03:16;101534.16;;;11.36;100.00
24666;BME280;29726;53.532;-1.478;2023-01-29T02:06:02;101550.69;;;11.43;100.00
24666;BME280;29726;53.532;-1.478;2023-01-29T02:09:14;101534.91;;;11.37;100.00
24666;BME280;29726;53.532;-1.478;2023-01-29T02:12:10;101535.63;;;11.41;100.00
24666;BME280;29726;53.532;-1.478;2023-01-29T02:14:38;101534.06;;;11.40;100.00
24666;BME280;29726;53.532;-1.478;2023-01-29T02:17:07;101523.88;;;11.33;100.00
24666;BME280;29726;53.532;-1.478;2023-01-29T02:19:40;101532.50;;;11.39;100.00
24666;BME280;29726;53.532;-1.478;2023-01-29T02:25:01;101516.59;;;11.36;100.00
24666;BME280;29726;53.532;-1.478;2023-01-29T02:30:40;101499.47;;;11.34;100.00
24666;BME280;29726;53.532;-1.478;2023-01-29T02:33:16;101515.34;;;11.37;100.00
24666;BME280;29726;53.532;-1.478;2023-01-29T02:38:45;101509.75;;;11.37;100.00
24666;BME280;29726;53.532;-1.478;2023-01-29T02:41:35;101509.44;;;11.35;100.00
24666;BME280;29726;53.532;-1.478;2023-01-29T02:49:26;101486.72;;;11.33;100.00
24666;BME280;29726;53.532;-1.478;2023-01-29T02:51:58;101495.91;;;11.33;100.00
24666;BME280;29726;53.532;-1.478;2023-01-29T02:54:45;101486.88;;;11.29;100.00
24666;BME280;29726;53.532;-1.478;2023-01-29T02:57:21;101475.69;;;11.29;100.00
24666;BME280;29726;53.532;-1.478;2023-01-29T02:59:53;101474.88;;;11.29;100.00
24666;BME280;29726;53.532;-1.478;2023-01-29T03:02:24;101480.94;;;11.27;100.00
24666;BME280;29726;53.532;-1.478;2023-01-29T03:04:59;101481.59;;;11.31;100.00
24666;BME280;29726;53.532;-1.478;2023-01-29T03:07:30;101488.44;;;11.30;100.00
24666;BME280;29726;53.532;-1.478;2023-01-29T03:12:50;101486.97;;;11.26;100.00
24666;BME280;29726;53.532;-1.478;2023-01-29T03:15:22;101455.25;;;11.07;100.00
24666;BME280;29726;53.532;-1.478;2023-01-29T03:17:57;101490.44;;;11.30;100.00
24666;BME280;29726;53.532;-1.478;2023-01-29T03:20:29;101486.97;;;11.26;100.00
24666;BME280;29726;53.532;-1.478;2023-01-29T03:23:04;101486.97;;;11.26;100.00
24666;BME280;29726;53.532;-1.478;2023-01-29T03:25:34;101488.09;;;11.28;100.00
24666;BME280;29726;53.532;-1.478;2023-01-29T03:28:20;101492.47;;;11.29;100.00
24666;BME280;29726;53.532;-1.478;2023-01-29T03:31:07;101485.63;;;11.30;100.00
24666;BME280;29726;53.532;-1.478;2023-01-29T03:36:52;101486.88;;;11.29;100.00
24666;BME280;29726;53.532;-1.478;2023-01-29T03:39:20;101466.41;;;11.20;100.00
24666;BME280;29726;53.532;-1.478;2023-01-29T03:44:52;101475.34;;;11.27;100.00
24666;BME280;29726;53.532;-1.478;2023-01-29T03:47:25;101470.19;;;11.26;100.00
24666;BME280;29726;53.532;-1.478;2023-01-29T03:50:04;101465.41;;;11.26;100.00
24666;BME280;29726;53.532;-1.478;2023-01-29T03:55:34;101444.38;;;11.22;100.00
24666;BME280;29726;53.532;-1.478;2023-01-29T03:58:22;101450.31;;;11.24;100.00
24666;BME280;29726;53.532;-1.478;2023-01-29T04:01:17;101443.16;;;11.23;100.00
24666;BME280;29726;53.532;-1.478;2023-01-29T04:03:59;101407.94;;;11.00;100.00
24666;BME280;29726;53.532;-1.478;2023-01-29T04:06:31;101432.22;;;11.16;100.00
24666;BME280;29726;53.532;-1.478;2023-01-29T04:09:14;101429.63;;;11.21;100.00
24666;BME280;29726;53.532;-1.478;2023-01-29T04:11:44;101420.13;;;11.19;100.00
24666;BME280;29726;53.532;-1.478;2023-01-29T04:14:13;101385.28;;;10.98;100.00
24666;BME280;29726;53.532;-1.478;2023-01-29T04:16:47;101404.94;;;11.20;100.00
24666;BME280;29726;53.532;-1.478;2023-01-29T04:19:14;101407.81;;;11.16;100.00
24666;BME280;29726;53.532;-1.478;2023-01-29T04:21:39;101399.13;;;11.14;100.00
24666;BME280;29726;53.532;-1.478;2023-01-29T04:24:06;101400.34;;;11.13;100.00
24666;BME280;29726;53.532;-1.478;2023-01-29T04:26:53;101397.44;;;11.17;100.00
24666;BME280;29726;53.532;-1.478;2023-01-29T04:29:34;101391.06;;;11.16;100.00
24666;BME280;29726;53.532;-1.478;2023-01-29T04:37:56;101386.38;;;11.13;100.00
24666;BME280;29726;53.532;-1.478;2023-01-29T04:43:15;101382.03;;;11.12;100.00
24666;BME280;29726;53.532;-1.478;2023-01-29T04:53:53;101364.91;;;11.10;100.00
24666;BME280;29726;53.532;-1.478;2023-01-29T04:56:26;101366.16;;;11.09;100.00
24666;BME280;29726;53.532;-1.478;2023-01-29T04:58:58;101365.03;;;11.07;100.00
24666;BME280;29726;53.532;-1.478;2023-01-29T05:01:29;101357.88;;;11.06;100.00
24666;BME280;29726;53.532;-1.478;2023-01-29T05:03:59;101334.09;;;10.89;100.00
24666;BME280;29726;53.532;-1.478;2023-01-29T05:06:28;101353.41;;;11.08;100.00
24666;BME280;29726;53.532;-1.478;2023-01-29T05:08:55;101351.84;;;11.07;100.00
24666;BME280;29726;53.532;-1.478;2023-01-29T05:11:23;101357.56;;;11.04;100.00
24666;BME280;29726;53.532;-1.478;2023-01-29T05:13:49;101361.13;;;11.04;100.00
24666;BME280;29726;53.532;-1.478;2023-01-29T05:16:22;101358.34;;;11.04;100.00
24666;BME280;29726;53.532;-1.478;2023-01-29T05:18:50;101356.31;;;11.05;100.00
24666;BME280;29726;53.532;-1.478;2023-01-29T05:21:16;101337.78;;;10.98;100.00
24666;BME280;29726;53.532;-1.478;2023-01-29T05:23:41;101353.53;;;11.05;100.00
24666;BME280;29726;53.532;-1.478;2023-01-29T05:26:18;101343.25;;;11.02;100.00
24666;BME280;29726;53.532;-1.478;2023-01-29T05:29:02;101354.31;;;11.05;100.00
24666;BME280;29726;53.532;-1.478;2023-01-29T05:31:28;101332.97;;;10.99;100.00
24666;BME280;29726;53.532;-1.478;2023-01-29T05:33:53;101344.03;;;11.02;100.00
24666;BME280;29726;53.532;-1.478;2023-01-29T05:36:20;101344.81;;;11.03;100.00
24666;BME280;29726;53.532;-1.478;2023-01-29T05:38:45;101336.88;;;11.01;100.00
24666;BME280;29726;53.532;-1.478;2023-01-29T05:41:10;101338.09;;;11.00;100.00
24666;BME280;29726;53.532;-1.478;2023-01-29T05:43:36;101317.69;;;10.91;100.00
24666;BME280;29726;53.532;-1.478;2023-01-29T05:46:01;101324.72;;;10.95;100.00
24666;BME280;29726;53.532;-1.478;2023-01-29T05:48:28;101319.25;;;10.92;100.00
24666;BME280;29726;53.532;-1.478;2023-01-29T05:50:59;101323.28;;;10.91;100.00
24666;BME280;29726;53.532;-1.478;2023-01-29T05:53:24;101324.06;;;10.91;100.00
24666;BME280;29726;53.532;-1.478;2023-01-29T05:55:50;101330.63;;;10.97;100.00
24666;BME280;29726;53.532;-1.478;2023-01-29T05:58:15;101327.50;;;10.95;100.00
24666;BME280;29726;53.532;-1.478;2023-01-29T06:00:41;101326.06;;;10.91;100.00
24666;BME280;29726;53.532;-1.478;2023-01-29T06:03:06;101286.13;;;10.69;100.00
24666;BME280;29726;53.532;-1.478;2023-01-29T06:05:32;101313.78;;;10.88;100.00
24666;BME280;29726;53.532;-1.478;2023-01-29T06:07:57;101275.81;;;10.66;100.00
24666;BME280;29726;53.532;-1.478;2023-01-29T06:10:23;101302.16;;;10.77;100.00
24666;BME280;29726;53.532;-1.478;2023-01-29T06:12:48;101308.22;;;10.76;100.00
24666;BME280;29726;53.532;-1.478;2023-01-29T06:15:13;101302.53;;;10.79;100.00
24666;BME280;29726;53.532;-1.478;2023-01-29T06:17:44;101308.31;;;10.85;100.00
24666;BME280;29726;53.532;-1.478;2023-01-29T06:20:09;101298.50;;;10.80;100.00
24666;BME280;29726;53.532;-1.478;2023-01-29T06:22:35;101260.88;;;10.60;100.00
24666;BME280;29726;53.532;-1.478;2023-01-29T06:25:00;101280.72;;;10.74;100.00
24666;BME280;29726;53.532;-1.478;2023-01-29T06:27:26;101285.88;;;10.76;100.00
24666;BME280;29726;53.532;-1.478;2023-01-29T06:29:51;101288.44;;;10.70;100.00
24666;BME280;29726;53.532;-1.478;2023-01-29T06:32:16;101251.94;;;10.52;100.00
24666;BME280;29726;53.532;-1.478;2023-01-29T06:34:42;101290.47;;;10.70;100.00
24666;BME280;29726;53.532;-1.478;2023-01-29T06:37:07;101285.66;;;10.70;100.00
24666;BME280;29726;53.532;-1.478;2023-01-29T06:39:33;101300.28;;;10.74;100.00
24666;BME280;29726;53.532;-1.478;2023-01-29T06:41:58;101294.81;;;10.71;100.00
24666;BME280;29726;53.532;-1.478;2023-01-29T06:44:24;101297.16;;;10.72;100.00
24666;BME280;29726;53.532;-1.478;2023-01-29T06:46:50;101284.41;;;10.71;100.00
24666;BME280;29726;53.532;-1.478;2023-01-29T06:49:15;101248.50;;;10.48;100.00
24666;BME280;29726;53.532;-1.478;2023-01-29T06:51:41;101273.25;;;10.71;100.00
24666;BME280;29726;53.532;-1.478;2023-01-29T06:54:06;101274.59;;;10.67;100.00
24666;BME280;29726;53.532;-1.478;2023-01-29T06:56:33;101256.41;;;10.62;100.00
24666;BME280;29726;53.532;-1.478;2023-01-29T06:58:58;101259.97;;;10.63;100.00
24666;BME280;29726;53.532;-1.478;2023-01-29T07:01:24;101271.78;;;10.67;100.00
24666;BME280;29726;53.532;-1.478;2023-01-29T07:03:49;101276.63;;;10.66;100.00
24666;BME280;29726;53.532;-1.478;2023-01-29T07:06:16;101268.81;;;10.61;100.00
24666;BME280;29726;53.532;-1.478;2023-01-29T07:08:42;101264.78;;;10.62;100.00
24666;BME280;29726;53.532;-1.478;2023-01-29T07:11:07;101263.22;;;10.61;100.00
24666;BME280;29726;53.532;-1.478;2023-01-29T07:13:33;101259.06;;;10.66;100.00
24666;BME280;29726;53.532;-1.478;2023-01-29T07:16:03;101227.31;;;10.38;100.00
24666;BME280;29726;53.532;-1.478;2023-01-29T07:18:29;101270.69;;;10.64;100.00
24666;BME280;29726;53.532;-1.478;2023-01-29T07:20:56;101266.59;;;10.56;100.00
24666;BME280;29726;53.532;-1.478;2023-01-29T07:23:22;101281.53;;;10.62;100.00
24666;BME280;29726;53.532;-1.478;2023-01-29T07:25:48;101284.44;;;10.59;100.00
24666;BME280;29726;53.532;-1.478;2023-01-29T07:28:15;101253.66;;;10.37;100.00
24666;BME280;29726;53.532;-1.478;2023-01-29T07:30:41;101281.66;;;10.59;100.00
24666;BME280;29726;53.532;-1.478;2023-01-29T07:33:08;101285.66;;;10.58;100.00
24666;BME280;29726;53.532;-1.478;2023-01-29T07:35:40;101275.72;;;10.57;100.00
24666;BME280;29726;53.532;-1.478;2023-01-29T07:38:09;101273.50;;;10.52;100.00
24666;BME280;29726;53.532;-1.478;2023-01-29T07:40:35;101274.19;;;10.56;100.00
24666;BME280;29726;53.532;-1.478;2023-01-29T07:43:03;101273.06;;;10.53;100.00
24666;BME280;29726;53.532;-1.478;2023-01-29T07:45:29;101268.69;;;10.52;100.00
24666;BME280;29726;53.532;-1.478;2023-01-29T07:47:56;101258.75;;;10.51;100.00
24666;BME280;29726;53.532;-1.478;2023-01-29T07:50:23;101232.44;;;10.27;100.00
24666;BME280;29726;53.532;-1.478;2023-01-29T07:52:49;101265.13;;;10.52;100.00
24666;BME280;29726;53.532;-1.478;2023-01-29T07:55:14;101267.59;;;10.50;100.00
24666;BME280;29726;53.532;-1.478;2023-01-29T07:57:40;101249.16;;;10.40;100.00
24666;BME280;29726;53.532;-1.478;2023-01-29T08:00:05;101255.31;;;10.47;100.00
24666;BME280;29726;53.532;-1.478;2023-01-29T08:02:31;101247.03;;;10.44;100.00
24666;BME280;29726;53.532;-1.478;2023-01-29T08:04:56;101248.75;;;10.41;100.00
24666;BME280;29726;53.532;-1.478;2023-01-29T08:07:22;101251.19;;;10.39;100.00
24666;BME280;29726;53.532;-1.478;2023-01-29T08:09:47;101253.09;;;10.42;100.00
24666;BME280;29726;53.532;-1.478;2023-01-29T08:12:12;101253.53;;;10.41;100.00
24666;BME280;29726;53.532;-1.478;2023-01-29T08:14:38;101250.06;;;10.37;100.00
24666;BME280;29726;53.532;-1.478;2023-01-29T08:17:04;101262.69;;;10.41;100.00
24666;BME280;29726;53.532;-1.478;2023-01-29T08:19:29;101264.34;;;10.39;100.00
24666;BME280;29726;53.532;-1.478;2023-01-29T08:21:54;101258.00;;;10.38;100.00
24666;BME280;29726;53.532;-1.478;2023-01-29T08:24:20;101240.13;;;10.36;100.00
24666;BME280;29726;53.532;-1.478;2023-01-29T08:26:45;101248.63;;;10.32;100.00
24666;BME280;29726;53.532;-1.478;2023-01-29T08:29:11;101244.38;;;10.40;100.00
24666;BME280;29726;53.532;-1.478;2023-01-29T08:31:37;101242.03;;;10.39;100.00
24666;BME280;29726;53.532;-1.478;2023-01-29T08:34:02;101247.28;;;10.37;100.00
24666;BME280;29726;53.532;-1.478;2023-01-29T08:36:27;101231.53;;;10.30;100.00
24666;BME280;29726;53.532;-1.478;2023-01-29T08:38:53;101238.13;;;10.36;100.00
24666;BME280;29726;53.532;-1.478;2023-01-29T08:41:18;101229.06;;;10.32;100.00
24666;BME280;29726;53.532;-1.478;2023-01-29T08:43:44;101237.69;;;10.38;100.00
24666;BME280;29726;53.532;-1.478;2023-01-29T08:46:10;101234.44;;;10.39;100.00
24666;BME280;29726;53.532;-1.478;2023-01-29T08:48:36;101225.75;;;10.37;100.00
24666;BME280;29726;53.532;-1.478;2023-01-29T08:51:01;101227.19;;;10.29;100.00
24666;BME280;29726;53.532;-1.478;2023-01-29T08:53:29;101208.69;;;10.23;100.00
24666;BME280;29726;53.532;-1.478;2023-01-29T08:55:54;101224.28;;;10.33;100.00
24666;BME280;29726;53.532;-1.478;2023-01-29T08:58:20;101234.56;;;10.36;100.00
24666;BME280;29726;53.532;-1.478;2023-01-29T09:00:45;101240.47;;;10.38;100.00
24666;BME280;29726;53.532;-1.478;2023-01-29T09:03:11;101237.69;;;10.38;100.00
24666;BME280;29726;53.532;-1.478;2023-01-29T09:05:37;101226.06;;;10.39;100.00
24666;BME280;29726;53.532;-1.478;2023-01-29T09:08:04;101225.41;;;10.35;100.00
24666;BME280;29726;53.532;-1.478;2023-01-29T09:10:29;101219.59;;;10.30;100.00
24666;BME280;29726;53.532;-1.478;2023-01-29T09:12:55;101213.56;;;10.31;100.00
24666;BME280;29726;53.532;-1.478;2023-01-29T09:15:20;101213.78;;;10.37;100.00
24666;BME280;29726;53.532;-1.478;2023-01-29T09:17:46;101213.34;;;10.38;100.00
24666;BME280;29726;53.532;-1.478;2023-01-29T09:20:13;101203.41;;;10.37;100.00
24666;BME280;29726;53.532;-1.478;2023-01-29T09:22:39;101188.22;;;10.38;100.00
24666;BME280;29726;53.532;-1.478;2023-01-29T09:25:05;101183.88;;;10.37;100.00
24666;BME280;29726;53.532;-1.478;2023-01-29T09:27:31;101181.28;;;10.43;100.00
24666;BME280;29726;53.532;-1.478;2023-01-29T09:29:56;101163.31;;;10.44;100.00
24666;BME280;29726;53.532;-1.478;2023-01-29T09:32:21;101159.75;;;10.43;100.00
24666;BME280;29726;53.532;-1.478;2023-01-29T09:34:47;101168.13;;;10.43;100.00
24666;BME280;29726;53.532;-1.478;2023-01-29T09:37:12;101145.78;;;10.43;100.00
24666;BME280;29726;53.532;-1.478;2023-01-29T09:39:37;101144.56;;;10.44;100.00
24666;BME280;29726;53.532;-1.478;2023-01-29T09:45:10;101155.03;;;10.53;100.00
24666;BME280;29726;53.532;-1.478;2023-01-29T09:47:37;101137.63;;;10.49;100.00
24666;BME280;29726;53.532;-1.478;2023-01-29T09:52:40;101118.22;;;10.45;100.00
24666;BME280;29726;53.532;-1.478;2023-01-29T09:57:53;101134.91;;;10.58;100.00
24666;BME280;29726;53.532;-1.478;2023-01-29T10:03:54;101148.09;;;10.57;100.00
24666;BME280;29726;53.532;-1.478;2023-01-29T10:07:10;101141.47;;;10.64;100.00
24666;BME280;29726;53.532;-1.478;2023-01-29T10:09:48;101140.56;;;10.67;100.00
24666;BME280;29726;53.532;-1.478;2023-01-29T10:23:29;101149.09;;;10.85;100.00
24666;BME280;29726;53.532;-1.478;2023-01-29T10:25:55;101126.91;;;10.81;100.00
24666;BME280;29726;53.532;-1.478;2023-01-29T10:28:28;101159.25;;;10.91;100.00
24666;BME280;29726;53.532;-1.478;2023-01-29T10:31:11;101096.09;;;10.72;100.00
24666;BME280;29726;53.532;-1.478;2023-01-29T10:33:41;101116.91;;;10.93;100.00
24666;BME280;29726;53.532;-1.478;2023-01-29T10:36:16;101124.81;;;10.94;100.00
24666;BME280;29726;53.532;-1.478;2023-01-29T10:38:45;101117.41;;;11.00;100.00
24666;BME280;29726;53.532;-1.478;2023-01-29T10:47:12;101108.63;;;11.11;100.00
24666;BME280;29726;53.532;-1.478;2023-01-29T10:58:28;101105.75;;;11.23;100.00
24666;BME280;29726;53.532;-1.478;2023-01-29T11:00:55;101102.81;;;11.27;100.00
24666;BME280;29726;53.532;-1.478;2023-01-29T11:03:26;101110.59;;;11.32;100.00
24666;BME280;29726;53.532;-1.478;2023-01-29T11:08:45;101107.56;;;11.39;100.00
24666;BME280;29726;53.532;-1.478;2023-01-29T11:11:16;101104.59;;;11.42;100.00
24666;BME280;29726;53.532;-1.478;2023-01-29T11:13:48;101102.13;;;11.44;100.00
24666;BME280;29726;53.532;-1.478;2023-01-29T11:16:15;101093.09;;;11.40;100.00
24666;BME280;29726;53.532;-1.478;2023-01-29T11:18:58;101095.78;;;11.44;100.00
24666;BME280;29726;53.532;-1.478;2023-01-29T11:21:25;101100.25;;;11.41;100.00
24666;BME280;29726;53.532;-1.478;2023-01-29T11:24:12;101109.03;;;11.52;100.00
24666;BME280;29726;53.532;-1.478;2023-01-29T11:26:43;101097.72;;;11.56;100.00
24666;BME280;29726;53.532;-1.478;2023-01-29T11:29:39;101107.53;;;11.60;100.00
24666;BME280;29726;53.532;-1.478;2023-01-29T11:35:00;101106.78;;;11.68;100.00
24666;BME280;29726;53.532;-1.478;2023-01-29T11:37:37;101088.28;;;11.71;100.00
24666;BME280;29726;53.532;-1.478;2023-01-29T11:42:44;101082.44;;;11.78;100.00
24666;BME280;29726;53.532;-1.478;2023-01-29T11:45:29;101086.31;;;11.80;100.00
24666;BME280;29726;53.532;-1.478;2023-01-29T11:47:58;101045.44;;;11.83;100.00
24666;BME280;29726;53.532;-1.478;2023-01-29T11:50:29;101058.31;;;11.80;100.00
24666;BME280;29726;53.532;-1.478;2023-01-29T11:52:58;101036.56;;;11.66;100.00
24666;BME280;29726;53.532;-1.478;2023-01-29T11:55:30;101057.44;;;11.92;100.00
24666;BME280;29726;53.532;-1.478;2023-01-29T11:58:00;101050.13;;;11.95;100.00
24666;BME280;29726;53.532;-1.478;2023-01-29T12:00:30;101042.19;;;11.93;100.00
24666;BME280;29726;53.532;-1.478;2023-01-29T12:05:25;101049.53;;;12.09;100.00
24666;BME280;29726;53.532;-1.478;2023-01-29T12:07:53;101040.19;;;12.12;100.00
24666;BME280;29726;53.532;-1.478;2023-01-29T12:10:40;101015.00;;;12.12;100.00
24666;BME280;29726;53.532;-1.478;2023-01-29T12:15:41;100976.28;;;12.01;100.00
24666;BME280;29726;53.532;-1.478;2023-01-29T12:18:34;100986.09;;;12.06;100.00
24666;BME280;29726;53.532;-1.478;2023-01-29T12:23:42;100978.47;;;12.24;100.00
24666;BME280;29726;53.532;-1.478;2023-01-29T12:26:12;100983.59;;;12.35;100.00
24666;BME280;29726;53.532;-1.478;2023-01-29T12:34:35;100972.72;;;12.46;100.00
24666;BME280;29726;53.532;-1.478;2023-01-29T12:40:16;100970.22;;;12.48;100.00
24666;BME280;29726;53.532;-1.478;2023-01-29T12:42:48;100956.53;;;12.50;100.00
24666;BME280;29726;53.532;-1.478;2023-01-29T12:45:21;100910.81;;;12.35;100.00
24666;BME280;29726;53.532;-1.478;2023-01-29T12:47:51;100939.38;;;12.57;100.00
24666;BME280;29726;53.532;-1.478;2023-01-29T12:50:20;100930.63;;;12.64;100.00
24666;BME280;29726;53.532;-1.478;2023-01-29T12:55:45;100935.59;;;12.78;100.00
24666;BME280;29726;53.532;-1.478;2023-01-29T12:58:28;100942.28;;;12.71;100.00
24666;BME280;29726;53.532;-1.478;2023-01-29T13:00:59;100955.84;;;12.73;100.00
24666;BME280;29726;53.532;-1.478;2023-01-29T13:03:44;100945.59;;;12.70;100.00
24666;BME280;29726;53.532;-1.478;2023-01-29T13:06:13;100943.25;;;12.68;100.00
24666;BME280;29726;53.532;-1.478;2023-01-29T13:08:44;100948.84;;;12.68;100.00
24666;BME280;29726;53.532;-1.478;2023-01-29T13:11:28;100936.44;;;12.60;100.00
24666;BME280;29726;53.532;-1.478;2023-01-29T13:14:08;100946.22;;;12.65;100.00
24666;BME280;29726;53.532;-1.478;2023-01-29T13:16:41;100950.69;;;12.71;100.00
24666;BME280;29726;53.532;-1.478;2023-01-29T13:19:24;100948.38;;;12.70;100.00
24666;BME280;29726;53.532;-1.478;2023-01-29T13:21:54;100944.63;;;12.73;100.00
24666;BME280;29726;53.532;-1.478;2023-01-29T13:24:23;100942.28;;;12.71;100.00
24666;BME280;29726;53.532;-1.478;2023-01-29T13:26:50;100938.25;;;12.72;100.00
24666;BME280;29726;53.532;-1.478;2023-01-29T13:29:21;100907.94;;;12.62;100.00
24666;BME280;29726;53.532;-1.478;2023-01-29T13:31:49;100926.59;;;12.74;100.00
24666;BME280;29726;53.532;-1.478;2023-01-29T13:34:20;100920.97;;;12.74;100.00
24666;BME280;29726;53.532;-1.478;2023-01-29T13:36:50;100923.00;;;12.73;100.00
24666;BME280;29726;53.532;-1.478;2023-01-29T13:39:26;100905.41;;;12.73;100.00
24666;BME280;29726;53.532;-1.478;2023-01-29T13:41:54;100889.56;;;12.70;100.00
24666;BME280;29726;53.532;-1.478;2023-01-29T13:44:27;100910.06;;;12.76;100.00
24666;BME280;29726;53.532;-1.478;2023-01-29T13:46:59;100908.53;;;12.75;100.00
24666;BME280;29726;53.532;-1.478;2023-01-29T13:49:33;100921.75;;;12.74;100.00
24666;BME280;29726;53.532;-1.478;2023-01-29T13:52:22;100896.72;;;12.71;100.00
24666;BME280;29726;53.532;-1.478;2023-01-29T13:54:57;100887.53;;;12.70;100.00
24666;BME280;29726;53.532;-1.478;2023-01-29T13:57:52;100869.16;;;12.69;100.00
24666;BME280;29726;53.532;-1.478;2023-01-29T14:10:39;100852.34;;;12.78;100.00
24666;BME280;29726;53.532;-1.478;2023-01-29T14:18:27;100847.13;;;12.86;100.00
24666;BME280;29726;53.532;-1.478;2023-01-29T14:21:05;100835.75;;;12.89;100.00
24666;BME280;29726;53.532;-1.478;2023-01-29T14:28:53;100799.13;;;12.69;100.00
24666;BME280;29726;53.532;-1.478;2023-01-29T14:31:35;100831.38;;;12.97;100.00
24666;BME280;29726;53.532;-1.478;2023-01-29T14:34:05;100813.81;;;12.88;100.00
24666;BME280;29726;53.532;-1.478;2023-01-29T14:36:39;100832.47;;;13.00;100.00
24666;BME280;29726;53.532;-1.478;2023-01-29T14:39:15;100820.00;;;13.01;100.00
24666;BME280;29726;53.532;-1.478;2023-01-29T14:41:43;100822.50;;;12.99;100.00
24666;BME280;29726;53.532;-1.478;2023-01-29T14:49:54;100802.75;;;12.93;100.00
24666;BME280;29726;53.532;-1.478;2023-01-29T14:52:36;100778.69;;;12.78;100.00
24666;BME280;29726;53.532;-1.478;2023-01-29T14:55:06;100821.28;;;12.91;100.00
24666;BME280;29726;53.532;-1.478;2023-01-29T14:57:35;100815.63;;;12.76;100.00
24666;BME280;29726;53.532;-1.478;2023-01-29T15:00:16;100810.34;;;12.69;100.00
24666;BME280;29726;53.532;-1.478;2023-01-29T15:02:44;100802.75;;;12.61;100.00